createdAt,value
2022-10-17T00:02:46.070Z,11.67
2022-10-17T00:07:52.512Z,11.61
2022-10-17T00:12:58.363Z,11.54
2022-10-17T00:18:04.873Z,11.51
2022-10-17T00:23:11.051Z,11.47
2022-10-17T00:28:17.491Z,11.51
2022-10-17T00:33:23.467Z,11.54
2022-10-17T00:38:29.456Z,11.55
2022-10-17T00:43:53.131Z,11.58
2022-10-17T00:49:01.869Z,11.55
2022-10-17T00:54:09.876Z,11.57
2022-10-17T00:59:17.818Z,11.56
2022-10-17T01:04:24.262Z,11.61
2022-10-17T01:09:32.075Z,11.65
2022-10-17T01:14:47.535Z,11.67
2022-10-17T01:20:14.931Z,11.65
2022-10-17T01:25:30.365Z,11.61
2022-10-17T01:30:56.488Z,11.58
2022-10-17T01:36:11.504Z,11.56
2022-10-17T01:41:25.775Z,11.60
2022-10-17T01:46:36.437Z,11.60
2022-10-17T01:51:46.662Z,11.58
2022-10-17T01:56:58.425Z,11.51
2022-10-17T02:02:06.137Z,11.44
2022-10-17T02:07:14.793Z,11.42
2022-10-17T02:12:41.550Z,11.45
2022-10-17T02:17:58.110Z,11.38
2022-10-17T02:23:10.552Z,11.33
2022-10-17T02:28:24.321Z,11.22
2022-10-17T02:33:35.185Z,11.12
2022-10-17T02:38:43.282Z,11.10
2022-10-17T02:43:52.675Z,11.03
2022-10-17T02:49:02.853Z,10.92
2022-10-17T02:54:14.145Z,10.89
2022-10-17T02:59:24.912Z,10.88
2022-10-17T03:04:30.924Z,10.78
2022-10-17T03:09:36.906Z,10.73
2022-10-17T03:14:43.066Z,10.72
2022-10-17T03:19:48.998Z,10.75
2022-10-17T03:24:54.723Z,10.71
2022-10-17T03:30:00.726Z,10.72
2022-10-17T03:35:08.397Z,10.90
2022-10-17T03:40:18.016Z,10.94
2022-10-17T03:45:24.110Z,10.98
2022-10-17T03:50:30.519Z,10.95
2022-10-17T03:55:36.849Z,10.99
2022-10-17T04:00:43.295Z,11.07
2022-10-17T04:05:49.330Z,11.29
2022-10-17T04:11:00.315Z,11.43
2022-10-17T04:16:09.280Z,11.51
2022-10-17T04:21:19.294Z,11.59
2022-10-17T04:26:26.380Z,11.63
2022-10-17T04:31:32.268Z,11.68
2022-10-17T04:36:44.050Z,11.66
2022-10-17T04:41:50.051Z,11.66
2022-10-17T04:46:55.884Z,11.74
2022-10-17T04:52:02.167Z,11.82
2022-10-17T04:57:17.574Z,11.83
2022-10-17T05:02:30.828Z,11.83
2022-10-17T05:07:41.323Z,11.89
2022-10-17T05:12:53.169Z,11.90
2022-10-17T05:18:02.318Z,11.88
2022-10-17T05:23:08.781Z,11.88
2022-10-17T05:28:18.588Z,11.95
2022-10-17T05:33:25.758Z,12.07
2022-10-17T05:38:33.241Z,12.20
2022-10-17T05:43:39.483Z,12.30
2022-10-17T05:48:45.913Z,12.36
2022-10-17T05:53:52.321Z,12.53
2022-10-17T05:59:02.480Z,12.81
2022-10-17T06:04:35.269Z,13.09
2022-10-17T06:09:42.088Z,13.23
2022-10-17T06:14:47.969Z,13.49
2022-10-17T06:19:54.569Z,14.60
2022-10-17T06:25:02.023Z,15.92
2022-10-17T06:30:10.104Z,16.74
2022-10-17T06:35:16.957Z,17.28
2022-10-17T06:40:23.017Z,18.05
2022-10-17T06:45:29.149Z,18.48
2022-10-17T06:51:11.840Z,18.54
2022-10-17T06:56:37.834Z,18.71
2022-10-17T07:01:58.039Z,18.52
2022-10-17T07:07:04.619Z,18.61
2022-10-17T07:12:12.867Z,18.56
2022-10-17T07:17:23.087Z,18.67
2022-10-17T07:22:29.141Z,19.09
2022-10-17T07:27:36.875Z,20.51
2022-10-17T07:32:43.511Z,22.05
2022-10-17T07:37:49.651Z,23.50
2022-10-17T07:42:58.152Z,24.39
2022-10-17T07:48:05.437Z,24.80
2022-10-17T07:53:12.590Z,25.24
2022-10-17T07:58:19.023Z,25.84
2022-10-17T08:03:24.757Z,26.09
2022-10-17T08:08:31.166Z,25.11
2022-10-17T08:13:38.986Z,24.09
2022-10-17T08:18:45.106Z,23.45
2022-10-17T08:23:50.959Z,22.76
2022-10-17T08:28:57.010Z,22.00
2022-10-17T08:34:03.105Z,21.65
2022-10-17T08:39:08.967Z,21.72
2022-10-17T08:44:31.374Z,23.07
2022-10-17T08:49:47.034Z,24.87
2022-10-17T08:54:53.118Z,26.49
2022-10-17T08:59:59.249Z,27.40
2022-10-17T09:05:28.643Z,27.89
2022-10-17T09:10:38.071Z,28.59
2022-10-17T09:16:01.410Z,29.17
2022-10-17T09:21:18.446Z,29.64
2022-10-17T09:26:25.983Z,29.92
2022-10-17T09:31:40.973Z,30.30
2022-10-17T09:36:46.885Z,30.48
2022-10-17T09:41:55.540Z,30.15
2022-10-17T09:47:26.182Z,29.63
2022-10-17T09:52:36.360Z,29.38
2022-10-17T09:57:57.313Z,29.50
2022-10-17T10:03:17.334Z,29.39
2022-10-17T10:08:26.844Z,29.13
2022-10-17T10:13:33.964Z,29.04
2022-10-17T10:18:40.151Z,29.17
2022-10-17T10:24:02.600Z,29.18
2022-10-17T10:29:22.801Z,29.03
2022-10-17T10:34:31.381Z,28.64
2022-10-17T10:39:50.243Z,28.46
2022-10-17T10:44:59.185Z,28.02
2022-10-17T10:50:23.806Z,27.40
2022-10-17T10:55:34.762Z,27.01
2022-10-17T11:09:24.691Z,26.34
2022-10-17T11:14:38.502Z,26.19
2022-10-17T11:19:53.232Z,26.16
2022-10-17T11:25:03.923Z,26.18
2022-10-17T11:30:14.989Z,26.07
2022-10-17T11:35:24.682Z,25.90
2022-10-17T11:40:33.997Z,25.79
2022-10-17T11:55:56.278Z,25.61
2022-10-17T12:01:12.921Z,25.60
2022-10-17T12:06:29.447Z,25.53
2022-10-17T12:11:45.778Z,25.57
2022-10-17T12:16:52.418Z,25.58
2022-10-17T12:22:02.473Z,25.29
2022-10-17T12:27:36.051Z,24.90
2022-10-17T12:33:07.487Z,24.63
2022-10-17T12:38:30.176Z,24.26
2022-10-17T12:49:19.688Z,24.28
2022-10-17T12:54:26.099Z,24.06
2022-10-17T12:59:32.716Z,23.84
2022-10-17T13:04:38.906Z,23.87
2022-10-17T13:09:46.041Z,23.97
2022-10-17T13:14:53.987Z,24.16
2022-10-17T13:20:00.355Z,24.10
2022-10-17T13:25:14.597Z,23.98
2022-10-17T13:30:29.416Z,23.89
2022-10-17T13:41:34.438Z,23.85
2022-10-17T13:46:39.781Z,23.59
2022-10-17T13:51:48.821Z,23.24
2022-10-17T13:56:59.607Z,22.91
2022-10-17T14:02:12.603Z,22.68
2022-10-17T14:07:41.589Z,22.42
2022-10-17T14:12:58.176Z,22.19
2022-10-17T14:18:07.939Z,21.95
2022-10-17T14:28:49.645Z,21.49
2022-10-17T14:33:56.508Z,21.26
2022-10-17T14:39:03.454Z,21.06
2022-10-17T14:44:16.056Z,20.84
2022-10-17T14:50:28.157Z,20.56
2022-10-17T14:55:36.449Z,20.33
2022-10-17T15:00:42.388Z,20.09
2022-10-17T15:05:50.046Z,19.90
2022-10-17T15:10:56.030Z,19.66
2022-10-17T15:16:01.973Z,19.41
2022-10-17T15:22:08.605Z,19.13
2022-10-17T15:27:18.003Z,18.88
2022-10-17T15:32:24.111Z,18.71
2022-10-17T15:37:37.584Z,18.57
2022-10-17T15:42:43.729Z,18.39
2022-10-17T15:47:54.997Z,18.18
2022-10-17T15:53:01.462Z,17.92
2022-10-17T15:58:10.967Z,17.70
2022-10-17T16:03:17.131Z,17.53
2022-10-17T16:08:23.303Z,17.41
2022-10-17T16:13:29.437Z,17.25
2022-10-17T16:18:35.653Z,17.01
2022-10-17T16:23:41.751Z,16.76
2022-10-17T16:28:48.159Z,16.48
2022-10-17T16:33:56.110Z,16.28
2022-10-17T16:39:02.065Z,16.15
2022-10-17T16:44:10.669Z,15.99
2022-10-17T16:49:18.342Z,15.81
2022-10-17T16:54:26.773Z,15.65
2022-10-17T16:59:34.128Z,15.52
2022-10-17T17:04:40.108Z,15.40
2022-10-17T17:09:46.131Z,15.27
2022-10-17T17:14:51.959Z,15.17
2022-10-17T17:19:57.948Z,15.05
2022-10-17T17:25:04.051Z,14.86
2022-10-17T17:30:11.727Z,14.70
2022-10-17T17:35:17.874Z,14.58
2022-10-17T17:40:24.003Z,14.48
2022-10-17T17:45:29.862Z,14.37
2022-10-17T17:50:38.460Z,14.29
2022-10-17T17:55:44.668Z,14.23
2022-10-17T18:00:50.893Z,14.16
2022-10-17T18:05:56.897Z,14.11
2022-10-17T18:11:03.956Z,14.05
2022-10-17T18:16:13.379Z,14.02
2022-10-17T18:21:19.566Z,13.93
2022-10-17T18:26:25.862Z,13.83
2022-10-17T18:31:36.162Z,13.78
2022-10-17T18:36:42.570Z,13.81
2022-10-17T18:41:48.558Z,13.88
2022-10-17T18:46:55.171Z,13.90
2022-10-17T18:52:01.869Z,13.90
2022-10-17T18:57:07.821Z,13.90
2022-10-17T19:02:13.642Z,13.90
2022-10-17T19:07:20.440Z,13.88
2022-10-17T19:12:26.710Z,13.89
2022-10-17T19:17:32.958Z,13.86
2022-10-17T19:22:39.163Z,13.84
2022-10-17T19:27:45.188Z,13.86
2022-10-17T19:32:51.350Z,13.89
2022-10-17T19:37:57.370Z,13.95
2022-10-17T19:43:03.180Z,13.99
2022-10-17T19:48:09.330Z,14.00
2022-10-17T19:53:15.569Z,13.99
2022-10-17T19:58:22.238Z,13.99
2022-10-17T20:03:29.267Z,14.05
2022-10-17T20:08:35.283Z,14.10
2022-10-17T20:13:41.959Z,14.05
2022-10-17T20:18:47.918Z,14.03
2022-10-17T20:23:53.851Z,14.06
2022-10-17T20:29:02.042Z,14.06
2022-10-17T20:34:08.119Z,14.04
2022-10-17T20:39:16.256Z,13.96
2022-10-17T20:44:22.286Z,13.93
2022-10-17T20:49:28.117Z,13.89
2022-10-17T20:54:34.056Z,13.81
2022-10-17T20:59:40.175Z,13.75
2022-10-17T21:04:48.160Z,13.75
2022-10-17T21:09:54.049Z,13.75
2022-10-17T21:15:00.170Z,13.75
2022-10-17T21:20:07.590Z,13.73
2022-10-17T21:25:13.460Z,13.69
2022-10-17T21:30:21.175Z,13.63
2022-10-17T21:35:26.997Z,13.54
2022-10-17T21:40:33.004Z,13.44
2022-10-17T21:45:39.209Z,13.31
2022-10-17T21:50:45.345Z,13.24
2022-10-17T21:55:51.198Z,13.23
2022-10-17T22:01:05.084Z,13.22
2022-10-17T22:06:38.753Z,13.18
2022-10-17T22:11:38.033Z,13.11
2022-10-17T22:16:45.275Z,13.04
2022-10-17T22:21:51.441Z,12.99
2022-10-17T22:26:57.234Z,12.92
2022-10-17T22:32:03.096Z,12.88
2022-10-17T22:37:08.921Z,12.81
2022-10-17T22:42:15.018Z,12.70
2022-10-17T22:47:20.831Z,12.67
2022-10-17T22:52:26.613Z,12.64
2022-10-17T22:57:32.469Z,12.63
2022-10-17T23:02:38.660Z,12.62
2022-10-17T23:07:44.849Z,12.60
2022-10-17T23:12:50.705Z,12.56
2022-10-17T23:17:56.480Z,12.50
2022-10-17T23:23:02.392Z,12.41
2022-10-17T23:28:09.282Z,12.34
2022-10-17T23:33:15.560Z,12.28
2022-10-17T23:38:21.444Z,12.22
2022-10-17T23:43:27.601Z,12.16
2022-10-17T23:48:33.397Z,12.05
2022-10-17T23:53:40.192Z,11.99
2022-10-17T23:58:46.622Z,11.95
